This is the latest recevied weather packets stored in our database for station/object YF9UAG-17. If no packets are shown the sender has not sent any weather packets the latest 10 day(s).
| Time | Temp. | Humidity | Pressure | Rain* | Wind** | Luminosity | Snow |
|---|---|---|---|---|---|---|---|
| 1787663190 | 30.56° C | 50% | 1033.8 hPa | - | - | - | - |
| 1787662585 | 31.11° C | 49% | 1033.7 hPa | - | - | - | - |
| 1787661982 | 32.22° C | 46% | 1033.6 hPa | - | - | - | - |
| 1787661379 | 32.22° C | 46% | 1033.5 hPa | - | - | - | - |
| 1787660776 | 32.22° C | 46% | 1033.3 hPa | - | - | - | - |
| 1787660173 | 31.67° C | 47% | 1033.2 hPa | - | - | - | - |
| 1787659570 | 31.11° C | 48% | 1033.1 hPa | - | - | - | - |
| 1787658967 | 30.56° C | 49% | 1033 hPa | - | - | - | - |
| 1787658364 | 30.56° C | 50% | 1032.9 hPa | - | - | - | - |
| 1787657761 | 30.56° C | 49% | 1032.8 hPa | - | - | - | - |
| 1787657157 | 30.56° C | 49% | 1032.7 hPa | - | - | - | - |
| 1787656554 | 30.56° C | 49% | 1032.5 hPa | - | - | - | - |
| 1787655950 | 30.56° C | 49% | 1032.5 hPa | - | - | - | - |
| 1787655347 | 30.56° C | 49% | 1032.3 hPa | - | - | - | - |
| 1787654744 | 30.56° C | 49% | 1032.3 hPa | - | - | - | - |
| 1787654141 | 30.56° C | 48% | 1032.1 hPa | - | - | - | - |
| 1787653537 | 30.56° C | 48% | 1031.9 hPa | - | - | - | - |
| 1787652933 | 29.44° C | 50% | 1031.9 hPa | - | - | - | - |
| 1787652330 | 30.56° C | 48% | 1031.8 hPa | - | - | - | - |
| 1787651727 | 30° C | 49% | 1031.5 hPa | - | - | - | - |
| 1787651124 | 30.56° C | 47% | 1031.3 hPa | - | - | - | - |
| 1787650521 | 30.56° C | 48% | 1031.2 hPa | - | - | - | - |
| 1787649918 | 31.67° C | 45% | 1031 hPa | - | - | - | - |
| 1787649315 | 31.67° C | 47% | 1030.9 hPa | - | - | - | - |
| 1787648712 | 32.22° C | 43% | 1030.8 hPa | - | - | - | - |
* Rain since midnight (hover to see other rain measurements)
** Current wind speed in m/s (hover to see current wind gust speed)